Time;durP1;ratioP1;P1;durP2;ratioP2;P2;SDS_P1;SDS_P2;PMS_P1;PMS_P2;Temp;Humidity;BMP_temperature;BMP_pressure;BME280_temperature;BME280_humidity;BME280_pressure;Samples;Min_cycle;Max_cycle;Signal;HPM_P1;HPM_P2
2021/03/03 00:02:19;;;;;;;26.63;13.30;;;7.20;99.90;;;;;;5092168;28;20213;-73
2021/03/03 00:04:45;;;;;;;23.20;12.23;;;7.20;99.90;;;;;;5092028;28;20712;-71
2021/03/03 00:07:13;;;;;;;24.67;10.90;;;7.10;99.90;;;;;;5091913;28;20213;-72
2021/03/03 00:09:39;;;;;;;18.40;11.18;;;7.20;99.90;;;;;;5092053;28;20292;-72
2021/03/03 00:12:07;;;;;;;21.42;11.15;;;7.10;99.90;;;;;;5092317;28;20210;-72
2021/03/03 00:14:34;;;;;;;18.13;10.20;;;7.20;99.90;;;;;;5095379;28;20696;-72
2021/03/03 00:17:00;;;;;;;21.17;11.13;;;7.10;99.90;;;;;;5095673;28;20297;-72
2021/03/03 00:19:26;;;;;;;19.25;11.02;;;7.10;99.90;;;;;;5095740;28;20202;-72
2021/03/03 00:21:53;;;;;;;18.33;9.00;;;7.10;99.90;;;;;;5095857;28;20206;-74
2021/03/03 00:24:20;;;;;;;26.95;10.55;;;7.10;99.90;;;;;;5095485;28;20288;-76
2021/03/03 00:26:46;;;;;;;21.20;10.75;;;7.20;99.90;;;;;;5095192;28;20220;-77
2021/03/03 00:29:12;;;;;;;16.30;10.50;;;7.20;99.90;;;;;;5095653;28;20293;-76
2021/03/03 00:31:39;;;;;;;20.83;11.68;;;7.10;99.90;;;;;;5095366;28;20229;-76
2021/03/03 00:34:05;;;;;;;18.35;11.15;;;7.00;99.90;;;;;;5095131;28;20695;-72
2021/03/03 00:36:31;;;;;;;20.80;11.27;;;7.10;99.90;;;;;;5095084;28;20664;-73
2021/03/03 00:38:58;;;;;;;19.27;11.32;;;7.00;99.90;;;;;;5094995;28;20283;-72
2021/03/03 00:41:25;;;;;;;20.33;9.93;;;7.00;99.90;;;;;;5095042;28;20224;-71
2021/03/03 00:43:51;;;;;;;26.10;12.95;;;7.00;99.90;;;;;;5095194;28;20198;-72
2021/03/03 00:46:17;;;;;;;26.20;14.75;;;6.90;99.90;;;;;;5095195;28;20308;-72
2021/03/03 00:48:44;;;;;;;20.45;12.48;;;6.90;99.90;;;;;;5095103;28;20202;-72
2021/03/03 00:51:10;;;;;;;19.52;10.50;;;7.00;99.90;;;;;;5095237;28;20316;-73
2021/03/03 00:53:36;;;;;;;20.38;12.43;;;7.10;99.90;;;;;;5094947;28;20217;-73
2021/03/03 00:56:03;;;;;;;19.17;10.07;;;7.20;99.90;;;;;;5095340;28;20205;-72
2021/03/03 00:58:30;;;;;;;19.98;10.75;;;7.20;99.90;;;;;;5095257;28;20806;-71
2021/03/03 01:00:58;;;;;;;27.27;11.90;;;7.20;99.90;;;;;;5095001;28;20274;-73
2021/03/03 01:03:25;;;;;;;24.63;11.77;;;7.10;99.90;;;;;;5094985;28;20322;-72
2021/03/03 01:05:52;;;;;;;16.73;11.27;;;7.10;99.90;;;;;;5095137;28;20202;-71
2021/03/03 01:08:18;;;;;;;20.20;10.63;;;7.00;99.90;;;;;;5094790;28;20208;-76
2021/03/03 01:10:44;;;;;;;24.23;11.48;;;7.00;99.90;;;;;;5094803;28;20228;-78
2021/03/03 01:13:11;;;;;;;18.05;10.60;;;7.00;99.90;;;;;;5095053;28;20253;-77
2021/03/03 01:15:38;;;;;;;18.65;10.43;;;7.00;99.90;;;;;;5094942;28;20660;-78
2021/03/03 01:18:04;;;;;;;17.80;10.20;;;7.00;99.90;;;;;;5094663;28;20359;-78
2021/03/03 01:20:31;;;;;;;17.90;10.15;;;6.90;99.90;;;;;;5094667;28;20310;-77
2021/03/03 01:22:58;;;;;;;19.00;9.52;;;6.90;99.90;;;;;;5094300;28;20346;-77
2021/03/03 01:25:24;;;;;;;18.10;10.30;;;6.90;99.90;;;;;;5093656;28;20198;-77
2021/03/03 01:27:51;;;;;;;20.40;11.57;;;7.00;99.90;;;;;;5094519;28;20683;-78
2021/03/03 01:30:18;;;;;;;21.75;10.60;;;7.00;99.90;;;;;;5094433;28;20233;-78
2021/03/03 01:32:45;;;;;;;23.80;10.35;;;7.00;99.90;;;;;;5094188;28;20652;-78
2021/03/03 01:35:13;;;;;;;18.45;10.45;;;7.00;99.90;;;;;;5094534;28;20226;-77
2021/03/03 01:37:39;;;;;;;19.38;10.15;;;7.00;99.90;;;;;;5094318;28;20299;-73
2021/03/03 01:40:08;;;;;;;16.17;9.57;;;6.90;99.90;;;;;;5094008;28;20228;-72
2021/03/03 01:42:34;;;;;;;24.35;11.45;;;6.90;99.90;;;;;;5094114;28;20205;-73
2021/03/03 01:45:01;;;;;;;18.23;10.73;;;6.90;99.90;;;;;;5093806;28;20258;-73
2021/03/03 01:47:27;;;;;;;16.88;10.40;;;7.00;99.90;;;;;;5093859;28;20247;-75
2021/03/03 01:49:54;;;;;;;18.70;10.43;;;6.90;99.90;;;;;;5094160;28;20757;-78
2021/03/03 01:52:22;;;;;;;25.52;10.60;;;6.80;99.90;;;;;;5095172;28;20612;-75
2021/03/03 01:54:48;;;;;;;15.95;10.30;;;6.80;99.90;;;;;;5095118;28;20575;-71
2021/03/03 01:57:15;;;;;;;17.08;10.20;;;6.80;99.90;;;;;;5095114;28;20667;-71
2021/03/03 01:59:41;;;;;;;19.25;10.93;;;6.80;99.90;;;;;;5095171;28;20229;-71
2021/03/03 02:02:07;;;;;;;15.30;10.40;;;6.90;99.90;;;;;;5095223;28;20208;-70
2021/03/03 02:04:34;;;;;;;14.60;9.80;;;6.90;99.90;;;;;;5095545;28;20201;-70
2021/03/03 02:07:10;;;;;;;22.35;12.02;;;6.90;99.90;;;;;;5094920;28;20202;-70
2021/03/03 02:09:46;;;;;;;20.80;10.95;;;6.80;99.90;;;;;;5094943;28;20201;-70
2021/03/03 02:12:18;;;;;;;19.48;10.63;;;6.70;99.90;;;;;;5095344;28;20190;-70
2021/03/03 02:14:51;;;;;;;17.25;9.63;;;6.70;99.90;;;;;;5095189;28;20225;-70
2021/03/03 02:17:19;;;;;;;16.20;9.35;;;6.70;99.90;;;;;;5094764;28;20198;-70
2021/03/03 02:19:48;;;;;;;19.13;9.93;;;6.70;99.90;;;;;;5094610;28;20226;-70
2021/03/03 02:22:20;;;;;;;16.88;8.90;;;6.70;99.90;;;;;;5095194;28;20648;-70
2021/03/03 02:24:52;;;;;;;16.52;9.48;;;6.70;99.90;;;;;;5095092;28;20624;-70
2021/03/03 02:27:22;;;;;;;17.13;9.30;;;6.80;99.90;;;;;;5094553;28;20657;-70
2021/03/03 02:29:50;;;;;;;16.88;9.75;;;6.70;99.90;;;;;;5094665;28;20217;-70
2021/03/03 02:32:19;;;;;;;16.65;9.30;;;6.60;99.90;;;;;;5094305;28;20209;-70
2021/03/03 02:34:46;;;;;;;18.52;10.00;;;6.60;99.90;;;;;;5094693;28;20226;-70
2021/03/03 02:37:13;;;;;;;21.08;10.25;;;6.60;99.90;;;;;;5094080;28;20293;-70
2021/03/03 02:39:40;;;;;;;18.15;9.75;;;6.60;99.90;;;;;;5094377;28;20208;-70
2021/03/03 02:42:08;;;;;;;20.25;10.15;;;6.60;99.90;;;;;;5094379;28;20301;-70
2021/03/03 02:44:36;;;;;;;16.67;9.63;;;6.60;99.90;;;;;;5093863;28;20296;-70
2021/03/03 02:47:02;;;;;;;18.02;9.70;;;6.60;99.90;;;;;;5094212;28;20567;-70
2021/03/03 02:49:29;;;;;;;16.02;9.27;;;6.50;99.90;;;;;;5093896;28;20202;-70
2021/03/03 02:51:56;;;;;;;19.58;10.15;;;6.40;99.90;;;;;;5094540;28;20251;-70
2021/03/03 02:54:22;;;;;;;15.05;9.57;;;6.30;99.90;;;;;;5094564;28;20217;-70
2021/03/03 02:56:49;;;;;;;16.33;8.50;;;6.30;99.90;;;;;;5093838;28;20202;-70
2021/03/03 02:59:24;;;;;;;19.50;9.85;;;6.30;99.90;;;;;;5094449;28;20522;-70
2021/03/03 03:01:53;;;;;;;20.13;8.82;;;6.40;99.90;;;;;;5094558;28;20229;-70
2021/03/03 03:04:22;;;;;;;17.38;9.13;;;6.30;99.90;;;;;;5094550;28;20198;-70
2021/03/03 03:06:49;;;;;;;15.48;9.55;;;6.40;99.90;;;;;;5094786;28;20208;-70
2021/03/03 03:09:17;;;;;;;20.45;10.10;;;6.30;99.90;;;;;;5094379;28;20210;-70
2021/03/03 03:11:48;;;;;;;20.50;10.30;;;6.00;99.90;;;;;;5093981;28;20226;-70
2021/03/03 03:14:20;;;;;;;17.15;10.40;;;5.80;99.90;;;;;;5094170;28;20210;-70
2021/03/03 03:16:49;;;;;;;18.85;10.48;;;5.70;99.90;;;;;;5093716;28;20743;-70
2021/03/03 03:19:22;;;;;;;16.90;9.55;;;5.80;99.90;;;;;;5094697;28;20543;-70
2021/03/03 03:21:50;;;;;;;14.55;9.23;;;5.90;99.90;;;;;;5094017;28;20226;-70
2021/03/03 03:24:19;;;;;;;24.08;10.15;;;5.90;99.90;;;;;;5093781;28;20206;-70
2021/03/03 03:26:47;;;;;;;15.75;9.02;;;5.90;99.90;;;;;;5093866;28;20206;-70
2021/03/03 03:29:14;;;;;;;16.48;10.27;;;5.90;99.90;;;;;;5094317;28;20198;-70
2021/03/03 03:31:41;;;;;;;15.23;9.43;;;5.90;99.90;;;;;;5094455;28;20567;-70
2021/03/03 03:34:09;;;;;;;19.67;9.88;;;5.90;99.90;;;;;;5093748;28;20304;-70
2021/03/03 03:36:37;;;;;;;19.13;9.85;;;6.00;99.90;;;;;;5093716;28;20297;-70
2021/03/03 03:39:04;;;;;;;20.85;10.02;;;6.10;99.90;;;;;;5093912;28;20258;-70
2021/03/03 03:41:33;;;;;;;20.13;10.30;;;6.10;99.90;;;;;;5094184;28;20602;-70
2021/03/03 03:44:00;;;;;;;20.50;10.40;;;6.20;99.90;;;;;;5093763;28;20208;-70
2021/03/03 03:46:27;;;;;;;18.50;10.20;;;6.10;99.90;;;;;;5093484;28;20213;-70
2021/03/03 03:48:55;;;;;;;21.08;10.52;;;6.00;99.90;;;;;;5095976;28;20293;-70
2021/03/03 03:51:21;;;;;;;19.35;9.50;;;6.10;99.90;;;;;;5097698;28;20222;-70
2021/03/03 03:53:49;;;;;;;17.48;10.55;;;6.10;99.90;;;;;;5097853;28;20222;-70
2021/03/03 03:56:15;;;;;;;19.00;9.90;;;6.10;99.90;;;;;;5097603;28;20289;-70
2021/03/03 03:58:41;;;;;;;25.40;10.80;;;6.20;99.90;;;;;;5097946;28;20643;-70
2021/03/03 04:01:08;;;;;;;17.70;9.73;;;6.10;99.90;;;;;;5098105;28;20218;-70
2021/03/03 04:03:34;;;;;;;19.27;9.95;;;6.10;99.90;;;;;;5097668;28;20202;-70
2021/03/03 04:06:01;;;;;;;17.10;9.80;;;6.00;99.90;;;;;;5097940;28;20198;-71
2021/03/03 04:08:27;;;;;;;24.65;11.85;;;6.00;99.90;;;;;;5097749;28;20197;-70
2021/03/03 04:10:55;;;;;;;19.33;10.73;;;6.00;99.90;;;;;;5097111;28;20313;-70
2021/03/03 04:13:22;;;;;;;22.08;10.15;;;6.10;99.90;;;;;;5097123;28;20289;-70
2021/03/03 04:15:48;;;;;;;22.80;10.32;;;5.90;99.90;;;;;;5097485;28;20289;-70
2021/03/03 04:18:15;;;;;;;19.42;10.55;;;5.90;99.90;;;;;;5097128;28;20297;-70
2021/03/03 04:20:42;;;;;;;17.05;9.60;;;5.90;99.90;;;;;;5097735;28;20248;-70
2021/03/03 04:23:08;;;;;;;20.08;10.23;;;6.00;99.90;;;;;;5097466;28;20296;-70
2021/03/03 04:25:35;;;;;;;15.40;9.43;;;6.10;99.90;;;;;;5096848;28;20230;-70
2021/03/03 04:28:03;;;;;;;22.42;10.35;;;6.10;99.90;;;;;;5096740;28;20289;-69
2021/03/03 04:30:30;;;;;;;18.25;10.35;;;6.10;99.90;;;;;;5097131;28;20222;-70
2021/03/03 04:32:56;;;;;;;22.77;10.75;;;6.10;99.90;;;;;;5096659;28;20815;-70
2021/03/03 04:35:22;;;;;;;16.58;10.57;;;6.20;99.90;;;;;;5096795;28;20759;-70
2021/03/03 04:37:49;;;;;;;19.13;9.43;;;6.00;99.90;;;;;;5097340;28;20208;-70
2021/03/03 04:40:15;;;;;;;17.40;9.95;;;5.90;99.90;;;;;;5096976;28;20222;-70
2021/03/03 04:42:42;;;;;;;19.40;9.80;;;5.90;99.90;;;;;;5097308;28;20687;-70
2021/03/03 04:45:11;;;;;;;22.80;11.20;;;5.90;99.90;;;;;;5096484;28;20629;-70
2021/03/03 04:47:38;;;;;;;21.67;10.77;;;5.90;99.90;;;;;;5096474;28;20234;-70
2021/03/03 04:50:05;;;;;;;19.98;9.80;;;6.00;99.90;;;;;;5096534;28;20633;-70
2021/03/03 04:52:32;;;;;;;19.23;10.20;;;6.00;99.90;;;;;;5096541;28;20202;-70
2021/03/03 04:54:58;;;;;;;20.60;11.13;;;5.90;99.90;;;;;;5096738;28;20668;-70
2021/03/03 04:57:25;;;;;;;17.70;8.93;;;5.80;99.90;;;;;;5096341;28;20252;-70
2021/03/03 04:59:51;;;;;;;19.52;11.05;;;5.60;99.90;;;;;;5094924;28;20317;-70
2021/03/03 05:02:18;;;;;;;23.88;11.32;;;5.60;99.90;;;;;;5096345;28;20648;-70
2021/03/03 05:04:45;;;;;;;19.23;10.02;;;5.70;99.90;;;;;;5096424;28;20710;-70
2021/03/03 05:07:14;;;;;;;24.92;11.43;;;5.70;99.90;;;;;;5096071;28;20213;-70
2021/03/03 05:09:40;;;;;;;26.67;12.75;;;5.80;99.90;;;;;;5096192;28;20206;-70
2021/03/03 05:12:08;;;;;;;23.95;11.88;;;5.80;99.90;;;;;;5096135;28;20212;-70
2021/03/03 05:14:35;;;;;;;25.05;11.00;;;5.90;99.90;;;;;;5096029;28;20677;-70
2021/03/03 05:17:01;;;;;;;21.63;10.70;;;6.00;99.90;;;;;;5095969;28;20623;-70
2021/03/03 05:19:28;;;;;;;22.85;11.60;;;6.00;99.90;;;;;;5096235;28;20202;-70
2021/03/03 05:21:54;;;;;;;20.63;11.98;;;6.10;99.90;;;;;;5096188;28;20612;-70
2021/03/03 05:24:21;;;;;;;23.88;12.25;;;6.10;99.90;;;;;;5096425;28;20224;-70
2021/03/03 05:26:47;;;;;;;28.50;12.07;;;6.10;99.90;;;;;;5096095;28;20241;-70
2021/03/03 05:29:14;;;;;;;20.27;11.02;;;6.20;99.90;;;;;;5096112;28;20202;-70
2021/03/03 05:31:41;;;;;;;25.90;11.90;;;6.20;99.90;;;;;;5095966;28;20313;-70
2021/03/03 05:34:07;;;;;;;19.98;11.20;;;6.20;99.90;;;;;;5095697;28;20218;-70
2021/03/03 05:36:35;;;;;;;22.90;10.45;;;6.20;99.90;;;;;;5096302;28;20250;-70
2021/03/03 05:39:01;;;;;;;18.13;9.80;;;6.30;99.90;;;;;;5095835;28;20559;-70
2021/03/03 05:41:27;;;;;;;21.60;10.48;;;6.30;99.90;;;;;;5095948;28;20254;-70
2021/03/03 05:43:54;;;;;;;17.88;10.20;;;6.30;99.90;;;;;;5095735;28;20198;-70
2021/03/03 05:46:21;;;;;;;24.20;12.00;;;6.40;99.90;;;;;;5095746;28;20679;-70
2021/03/03 05:48:52;;;;;;;16.30;8.90;;;6.40;99.90;;;;;;5095671;28;20205;-70
2021/03/03 05:51:20;;;;;;;19.52;11.10;;;6.40;99.90;;;;;;5095431;28;20313;-70
2021/03/03 05:53:48;;;;;;;20.45;10.65;;;6.30;99.90;;;;;;5095568;28;20222;-70
2021/03/03 05:56:16;;;;;;;25.67;11.57;;;6.20;99.90;;;;;;5095330;28;20209;-70
2021/03/03 05:58:42;;;;;;;19.60;11.20;;;6.20;99.90;;;;;;5095518;28;20288;-70
2021/03/03 06:01:10;;;;;;;19.38;10.73;;;6.20;99.90;;;;;;5095550;28;20225;-70
2021/03/03 06:03:38;;;;;;;21.67;10.40;;;6.20;99.90;;;;;;5096033;28;20212;-70
2021/03/03 06:06:05;;;;;;;16.50;9.82;;;6.10;99.90;;;;;;5095849;28;20664;-70
2021/03/03 06:08:32;;;;;;;17.10;10.30;;;6.10;99.90;;;;;;5095910;28;20285;-70
2021/03/03 06:11:01;;;;;;;18.42;10.32;;;6.10;99.90;;;;;;5094714;28;20232;-70
2021/03/03 06:13:28;;;;;;;21.88;10.30;;;6.20;99.90;;;;;;5095704;28;20206;-70
2021/03/03 06:15:55;;;;;;;15.88;10.35;;;6.20;99.90;;;;;;5094993;28;20198;-70
2021/03/03 06:18:22;;;;;;;18.23;11.00;;;6.30;99.90;;;;;;5095675;28;20555;-70
2021/03/03 06:20:50;;;;;;;18.65;10.30;;;6.30;99.90;;;;;;5094915;28;20222;-70
2021/03/03 06:23:18;;;;;;;22.00;10.15;;;6.40;99.90;;;;;;5094943;28;20675;-71
2021/03/03 06:25:46;;;;;;;21.20;10.23;;;6.40;99.90;;;;;;5095234;28;20243;-70
2021/03/03 06:28:31;;;;;;;20.73;10.95;;;6.50;99.90;;;;;;5095251;28;20636;-70
2021/03/03 06:30:57;;;;;;;18.95;10.13;;;6.50;99.90;;;;;;5095126;28;20233;-70
2021/03/03 06:33:25;;;;;;;15.88;10.07;;;6.50;99.90;;;;;;5094649;28;20237;-70
2021/03/03 06:35:52;;;;;;;13.93;9.13;;;6.50;99.90;;;;;;5095052;28;20205;-70
2021/03/03 06:38:26;;;;;;;14.23;9.73;;;6.50;99.90;;;;;;5094827;28;20205;-70
2021/03/03 06:40:54;;;;;;;22.88;10.43;;;6.50;99.90;;;;;;5094575;28;20221;-70
2021/03/03 06:43:23;;;;;;;21.83;10.05;;;6.60;99.90;;;;;;5095281;28;20202;-71
2021/03/03 06:45:50;;;;;;;23.33;9.80;;;6.60;99.90;;;;;;5094617;28;20550;-71
2021/03/03 06:48:37;;;;;;;17.00;10.50;;;6.40;99.90;;;;;;5094841;28;20206;-71
2021/03/03 06:51:22;;;;;;;19.13;10.38;;;6.50;99.90;;;;;;5094750;28;20218;-71
2021/03/03 06:53:49;;;;;;;20.92;10.93;;;6.70;99.90;;;;;;5095387;28;20225;-71
2021/03/03 06:56:31;;;;;;;18.90;10.90;;;6.70;99.90;;;;;;5094844;28;20210;-70
2021/03/03 06:59:11;;;;;;;19.58;10.68;;;6.70;99.90;;;;;;5094654;28;20719;-71
2021/03/03 07:01:38;;;;;;;16.63;9.90;;;6.70;99.90;;;;;;5095249;28;20265;-71
2021/03/03 07:04:04;;;;;;;17.65;10.40;;;6.50;99.90;;;;;;5095325;28;20244;-72
2021/03/03 07:06:32;;;;;;;18.77;11.18;;;6.50;99.90;;;;;;5095257;28;20266;-71
2021/03/03 07:08:59;;;;;;;20.80;10.50;;;6.40;99.90;;;;;;5095498;28;20648;-71
2021/03/03 07:11:27;;;;;;;19.60;10.73;;;6.50;99.90;;;;;;5083057;28;20226;-71
2021/03/03 07:13:53;;;;;;;19.77;11.18;;;6.60;99.90;;;;;;5091706;28;20316;-71
2021/03/03 07:16:21;;;;;;;20.85;10.68;;;6.60;99.90;;;;;;5093821;28;20237;-71
2021/03/03 07:18:47;;;;;;;20.48;11.35;;;6.40;99.90;;;;;;5094192;28;20202;-71
2021/03/03 07:21:15;;;;;;;26.83;11.93;;;6.20;99.90;;;;;;5094237;28;20222;-71
2021/03/03 07:23:48;;;;;;;18.90;11.35;;;6.20;99.90;;;;;;5093420;28;20232;-71
2021/03/03 07:26:18;;;;;;;24.88;11.65;;;6.40;99.90;;;;;;5094035;28;20300;-71
2021/03/03 07:28:45;;;;;;;21.30;10.55;;;6.40;99.90;;;;;;5094373;28;20656;-72
2021/03/03 07:31:25;;;;;;;21.38;11.38;;;6.40;99.90;;;;;;5096239;28;20228;-78
2021/03/03 07:33:52;;;;;;;20.60;12.73;;;6.40;99.90;;;;;;5096827;28;20672;-77
2021/03/03 07:36:21;;;;;;;25.73;12.63;;;6.30;99.90;;;;;;5092827;28;20281;-77
2021/03/03 07:38:49;;;;;;;25.02;12.45;;;6.30;99.90;;;;;;5095121;28;20209;-78
2021/03/03 07:41:17;;;;;;;19.45;11.18;;;6.30;99.90;;;;;;5094787;28;20316;-78
2021/03/03 07:43:48;;;;;;;24.13;14.10;;;6.40;99.90;;;;;;5095854;28;20235;-77
2021/03/03 07:46:15;;;;;;;20.63;11.50;;;6.70;99.90;;;;;;5092899;28;20297;-78
2021/03/03 07:48:49;;;;;;;21.63;12.15;;;6.90;99.90;;;;;;5094140;28;20293;-75
2021/03/03 07:51:18;;;;;;;21.95;11.95;;;6.90;99.90;;;;;;5092756;28;20221;-73
2021/03/03 07:53:44;;;;;;;25.55;13.70;;;7.00;99.90;;;;;;5092195;28;20204;-72
2021/03/03 07:56:26;;;;;;;23.30;13.13;;;7.10;99.90;;;;;;5092377;28;20202;-70
2021/03/03 07:59:00;;;;;;;22.08;12.75;;;7.10;99.90;;;;;;5092604;28;20641;-72
2021/03/03 08:01:27;;;;;;;21.75;12.48;;;7.00;99.90;;;;;;5092817;28;20233;-77
2021/03/03 08:03:57;;;;;;;26.95;15.10;;;7.00;99.90;;;;;;5094188;28;20202;-78
2021/03/03 08:06:29;;;;;;;27.52;13.07;;;7.00;99.90;;;;;;5093471;28;20301;-77
2021/03/03 08:09:13;;;;;;;22.63;14.30;;;7.00;99.90;;;;;;5092080;28;20242;-77
2021/03/03 08:11:42;;;;;;;21.77;13.20;;;7.00;99.90;;;;;;5092240;28;20233;-77
2021/03/03 08:14:29;;;;;;;21.60;12.57;;;7.30;99.90;;;;;;5091932;28;20309;-76
2021/03/03 08:16:56;;;;;;;19.63;11.77;;;7.50;99.90;;;;;;5091655;28;20297;-76
2021/03/03 08:19:51;;;;;;;27.13;13.23;;;7.80;99.90;;;;;;5092106;28;20289;-77
2021/03/03 08:22:18;;;;;;;24.35;13.25;;;8.00;99.90;;;;;;5086526;28;20566;-72
2021/03/03 08:24:44;;;;;;;22.77;13.52;;;8.10;99.90;;;;;;5094166;28;20205;-72
2021/03/03 08:27:39;;;;;;;22.15;13.40;;;8.10;99.90;;;;;;5093728;28;20296;-74
2021/03/03 08:30:13;;;;;;;25.27;14.13;;;8.00;99.90;;;;;;5093780;28;20226;-73
2021/03/03 08:32:39;;;;;;;24.88;13.70;;;8.00;99.90;;;;;;5094158;28;20240;-74
2021/03/03 08:35:08;;;;;;;24.58;14.43;;;8.00;99.90;;;;;;5096374;28;20222;-74
2021/03/03 08:37:39;;;;;;;23.73;13.40;;;8.20;99.90;;;;;;5097294;28;20671;-74
2021/03/03 08:40:28;;;;;;;25.55;13.85;;;8.30;99.90;;;;;;5097676;28;20298;-74
2021/03/03 08:42:54;;;;;;;29.13;14.75;;;8.30;99.90;;;;;;5097439;28;20273;-74
2021/03/03 08:45:28;;;;;;;30.27;15.20;;;8.20;99.90;;;;;;5097412;28;20294;-74
2021/03/03 08:47:57;;;;;;;25.00;14.68;;;8.40;99.90;;;;;;5097412;28;20226;-73
2021/03/03 08:50:44;;;;;;;23.65;14.45;;;8.50;99.90;;;;;;5097757;28;20253;-74
2021/03/03 08:53:25;;;;;;;21.13;12.55;;;8.70;99.90;;;;;;5097476;28;20255;-75
2021/03/03 08:55:59;;;;;;;19.33;11.90;;;9.00;99.90;;;;;;5097355;28;20271;-75
2021/03/03 08:59:00;;;;;;;21.77;13.20;;;9.10;99.90;;;;;;5097750;28;20224;-75
2021/03/03 09:01:54;;;;;;;24.60;13.30;;;9.30;99.90;;;;;;5097424;28;20647;-74
2021/03/03 09:04:26;;;;;;;20.63;12.75;;;9.40;99.90;;;;;;5095407;28;20206;-74
2021/03/03 09:06:56;;;;;;;21.80;13.00;;;9.50;99.90;;;;;;5096964;28;20612;-73
2021/03/03 09:09:23;;;;;;;20.15;13.50;;;9.50;99.90;;;;;;5097284;28;20206;-74
2021/03/03 09:12:01;;;;;;;19.27;14.18;;;9.40;99.90;;;;;;5097228;28;20573;-74
2021/03/03 09:14:28;;;;;;;23.52;13.07;;;9.40;99.90;;;;;;5096956;28;20218;-75
2021/03/03 09:16:57;;;;;;;24.95;14.80;;;9.30;99.90;;;;;;5096943;28;20655;-74
2021/03/03 09:19:24;;;;;;;26.88;14.75;;;9.30;99.90;;;;;;5096693;28;20205;-74
2021/03/03 09:21:50;;;;;;;24.60;13.95;;;9.30;99.90;;;;;;5097251;28;20691;-74
2021/03/03 09:24:18;;;;;;;21.45;14.00;;;9.50;99.90;;;;;;5096679;28;20285;-75
2021/03/03 09:26:46;;;;;;;23.23;14.30;;;9.50;99.90;;;;;;5096335;28;20258;-74
2021/03/03 09:29:30;;;;;;;29.35;15.35;;;9.40;99.90;;;;;;5096867;28;20202;-74
2021/03/03 09:31:57;;;;;;;23.50;14.23;;;9.10;99.90;;;;;;5096760;28;20193;-74
2021/03/03 09:34:24;;;;;;;24.88;15.00;;;9.00;99.90;;;;;;5096773;28;20261;-75
2021/03/03 09:36:58;;;;;;;30.83;15.32;;;9.30;99.90;;;;;;5096146;28;20690;-73
2021/03/03 09:39:26;;;;;;;22.40;14.30;;;9.40;99.90;;;;;;5096592;28;20206;-74
2021/03/03 09:42:00;;;;;;;23.15;14.23;;;9.50;99.90;;;;;;5096465;28;20759;-75
2021/03/03 09:44:28;;;;;;;26.45;14.70;;;9.60;99.90;;;;;;5096061;28;20213;-75
2021/03/03 09:46:59;;;;;;;27.80;13.73;;;9.70;99.90;;;;;;5095218;28;20206;-74
2021/03/03 09:49:28;;;;;;;27.67;14.98;;;9.80;99.90;;;;;;5096139;28;20206;-75
2021/03/03 09:51:55;;;;;;;26.40;14.18;;;10.00;99.90;;;;;;5096701;28;20287;-75
2021/03/03 09:54:34;;;;;;;22.13;14.23;;;10.10;99.90;;;;;;5096238;28;20327;-75
2021/03/03 09:57:08;;;;;;;25.08;14.80;;;10.20;99.40;;;;;;5095928;28;20616;-73
2021/03/03 09:59:36;;;;;;;23.13;13.93;;;10.10;99.30;;;;;;5096387;28;20201;-74
2021/03/03 10:02:03;;;;;;;23.92;14.10;;;10.30;99.50;;;;;;5096280;28;20206;-75
2021/03/03 10:04:30;;;;;;;24.15;14.98;;;10.40;99.20;;;;;;5096065;28;20198;-74
2021/03/03 10:06:58;;;;;;;23.35;13.93;;;10.50;98.70;;;;;;5095681;28;20241;-74
2021/03/03 10:09:26;;;;;;;19.25;13.32;;;10.60;98.50;;;;;;5096584;28;20542;-74
2021/03/03 10:11:53;;;;;;;24.52;15.27;;;10.60;98.20;;;;;;5096234;28;20308;-74
2021/03/03 10:14:20;;;;;;;25.88;15.05;;;10.70;97.50;;;;;;5095785;28;20757;-75
2021/03/03 10:16:59;;;;;;;27.92;14.75;;;10.40;97.50;;;;;;5095460;28;20210;-74
2021/03/03 10:19:25;;;;;;;22.50;14.25;;;10.20;98.30;;;;;;5095867;28;20205;-74
2021/03/03 10:21:52;;;;;;;21.52;13.70;;;10.30;98.90;;;;;;5095559;28;20308;-74
2021/03/03 10:24:20;;;;;;;23.45;15.45;;;10.30;98.10;;;;;;5095542;28;20283;-74
2021/03/03 10:26:48;;;;;;;28.08;15.35;;;10.10;98.20;;;;;;5095196;28;20255;-74
2021/03/03 10:29:34;;;;;;;22.40;14.63;;;10.40;99.00;;;;;;5095284;28;20198;-74
2021/03/03 10:32:12;;;;;;;21.98;14.25;;;10.50;98.80;;;;;;5095305;28;20186;-74
2021/03/03 10:34:40;;;;;;;23.98;15.55;;;10.80;98.40;;;;;;5095706;28;20699;-75
2021/03/03 10:37:07;;;;;;;22.80;14.05;;;11.00;97.80;;;;;;5095023;28;20209;-74
2021/03/03 10:39:34;;;;;;;22.33;14.68;;;11.00;97.20;;;;;;5094990;28;20698;-74
2021/03/03 10:42:02;;;;;;;24.20;14.80;;;11.20;97.00;;;;;;5095362;28;20556;-74
2021/03/03 10:44:40;;;;;;;22.70;14.40;;;11.20;96.50;;;;;;5094997;28;20202;-75
2021/03/03 10:47:06;;;;;;;23.38;14.70;;;11.40;96.50;;;;;;5094882;28;20292;-74
2021/03/03 10:49:35;;;;;;;24.65;14.93;;;11.60;96.40;;;;;;5095146;28;20201;-74
2021/03/03 10:52:01;;;;;;;22.15;14.48;;;11.80;95.90;;;;;;5094979;28;20206;-75
2021/03/03 10:54:32;;;;;;;23.73;14.70;;;12.10;95.70;;;;;;5094889;28;20312;-74
2021/03/03 10:57:05;;;;;;;23.02;14.07;;;12.30;95.10;;;;;;5094960;28;20293;-74
2021/03/03 10:59:32;;;;;;;22.55;15.00;;;12.50;94.50;;;;;;5094677;28;20249;-74
2021/03/03 11:02:01;;;;;;;23.25;14.85;;;12.60;93.80;;;;;;5094769;28;20247;-74
2021/03/03 11:04:38;;;;;;;22.33;15.30;;;12.70;93.40;;;;;;5094703;28;20660;-75
2021/03/03 11:07:05;;;;;;;21.75;15.00;;;12.80;93.10;;;;;;5094354;28;20237;-72
2021/03/03 11:09:31;;;;;;;21.17;14.23;;;12.90;92.60;;;;;;5094544;28;20722;-72
2021/03/03 11:11:58;;;;;;;25.35;13.95;;;13.00;92.10;;;;;;5095247;28;20228;-72
2021/03/03 11:14:27;;;;;;;21.90;14.57;;;13.00;92.10;;;;;;5094962;28;20244;-71
2021/03/03 11:16:54;;;;;;;21.45;14.70;;;12.80;91.30;;;;;;5094354;28;20241;-72
2021/03/03 11:19:22;;;;;;;23.63;14.57;;;12.70;92.10;;;;;;5094347;28;20202;-72
2021/03/03 11:21:49;;;;;;;23.30;14.77;;;12.80;92.50;;;;;;5094353;28;20675;-71
2021/03/03 11:24:15;;;;;;;20.40;14.38;;;13.00;92.30;;;;;;5094428;28;20198;-72
2021/03/03 11:26:44;;;;;;;25.40;15.45;;;13.20;92.20;;;;;;5094185;28;20288;-71
2021/03/03 11:29:11;;;;;;;20.00;14.45;;;13.30;91.50;;;;;;5094471;28;20206;-72
2021/03/03 11:31:38;;;;;;;24.67;14.80;;;13.30;91.50;;;;;;5094050;28;20222;-72
2021/03/03 11:34:05;;;;;;;20.63;14.50;;;13.40;91.30;;;;;;5094151;28;20210;-72
2021/03/03 11:36:33;;;;;;;18.67;14.57;;;13.50;90.80;;;;;;5093933;28;20209;-71
2021/03/03 11:38:59;;;;;;;21.55;15.10;;;13.40;89.00;;;;;;5093796;28;20292;-71
2021/03/03 11:41:26;;;;;;;23.77;15.25;;;12.90;90.50;;;;;;5094587;28;20222;-72
2021/03/03 11:43:52;;;;;;;24.98;14.95;;;12.80;90.90;;;;;;5093915;28;20289;-72
2021/03/03 11:46:19;;;;;;;21.98;14.80;;;12.80;91.10;;;;;;5094097;28;20212;-72
2021/03/03 11:48:45;;;;;;;32.15;15.40;;;13.00;91.50;;;;;;5094355;28;20202;-72
2021/03/03 11:51:12;;;;;;;20.40;14.65;;;13.10;90.20;;;;;;5094038;28;20309;-72
2021/03/03 11:53:39;;;;;;;24.58;14.82;;;13.00;89.90;;;;;;5094664;28;20727;-72
2021/03/03 11:56:06;;;;;;;20.50;15.00;;;13.00;90.20;;;;;;5093832;28;20226;-71
2021/03/03 11:58:32;;;;;;;23.63;15.05;;;13.10;90.80;;;;;;5094283;28;20336;-72
2021/03/03 12:00:59;;;;;;;23.80;14.65;;;13.20;90.20;;;;;;5094388;28;20606;-72
2021/03/03 12:03:25;;;;;;;25.10;14.82;;;13.30;90.20;;;;;;5094753;28;20198;-72
2021/03/03 12:05:51;;;;;;;22.00;14.98;;;13.30;89.20;;;;;;5094591;28;20572;-72
2021/03/03 12:08:18;;;;;;;23.85;14.50;;;13.40;90.10;;;;;;5094072;28;20285;-72
2021/03/03 12:10:45;;;;;;;20.50;14.52;;;13.70;90.50;;;;;;5097457;28;20253;-72
2021/03/03 12:13:11;;;;;;;24.13;15.30;;;13.70;89.70;;;;;;5098195;28;20289;-72
2021/03/03 12:15:38;;;;;;;22.15;15.00;;;13.80;87.10;;;;;;5098389;28;20222;-72
2021/03/03 12:18:04;;;;;;;22.40;13.57;;;13.70;87.10;;;;;;5098107;28;20293;-71
2021/03/03 12:20:31;;;;;;;20.35;14.40;;;13.70;88.40;;;;;;5098233;28;20582;-73
2021/03/03 12:22:57;;;;;;;22.58;13.90;;;13.80;87.00;;;;;;5098168;28;20197;-72
2021/03/03 12:25:25;;;;;;;24.33;14.73;;;13.60;86.80;;;;;;5098220;28;20247;-73
2021/03/03 12:27:52;;;;;;;20.45;14.35;;;13.60;88.70;;;;;;5098136;28;20208;-72
2021/03/03 12:30:19;;;;;;;20.83;14.13;;;13.80;88.60;;;;;;5098121;28;20236;-74
2021/03/03 12:32:46;;;;;;;23.42;15.20;;;13.70;86.10;;;;;;5098614;28;20298;-75
2021/03/03 12:35:16;;;;;;;21.52;14.20;;;13.80;86.90;;;;;;5098559;28;20538;-74
2021/03/03 12:37:44;;;;;;;26.45;15.10;;;13.80;87.80;;;;;;5097708;28;20202;-74
2021/03/03 12:40:11;;;;;;;20.40;14.57;;;14.00;88.00;;;;;;5097824;28;20311;-75
2021/03/03 12:42:37;;;;;;;25.02;15.77;;;14.10;87.70;;;;;;5097735;28;20661;-75
2021/03/03 12:45:09;;;;;;;24.95;15.48;;;14.30;87.00;;;;;;5097939;28;20696;-75